Terminal Aerodrome Forecast
Issued by NWS Shreveport, LA

Home | Current Version | Previous Version | Text Only | Print | Product List | Glossary On
Versions: 1 2 3 4 5 6 7 8 9 10 11 12 13 14 15 16 17
000
FTUS44 KSHV 271949 AAA
TAFTXK
TAF AMD
KTXK 271949Z 2720/2818 17006KT P6SM -SHRA BKN100
     FM272200 18008KT P6SM VCSH OVC050
     FM280500 17006KT P6SM OVC015=

USA.gov is the U.S. government's official web portal to all federal, state and local government web resources and services.